Time;durP1;ratioP1;P1;durP2;ratioP2;P2;SDS_P1;SDS_P2;PMS_P1;PMS_P2;Temp;Humidity;BMP_temperature;BMP_pressure;BME280_temperature;BME280_humidity;BME280_pressure;Samples;Min_cycle;Max_cycle;Signal;HPM_P1;HPM_P2
2022/02/23 00:01:29;;;;;;;19.02;2.45;;;;;;;3.24;55.86;101564.13;4978955;28;20033;-79
2022/02/23 00:03:56;;;;;;;24.02;2.20;;;;;;;2.72;57.22;101560.53;5000594;28;20050;-77
2022/02/23 00:06:21;;;;;;;21.45;1.60;;;;;;;2.69;57.79;101565.69;4978103;28;20025;-79
2022/02/23 00:08:47;;;;;;;20.15;2.42;;;;;;;2.76;56.94;101566.59;4975695;28;20045;-79
2022/02/23 00:11:12;;;;;;;17.10;2.88;;;;;;;2.68;58.05;101571.72;4983126;28;20602;-79
2022/02/23 00:13:38;;;;;;;17.98;2.05;;;;;;;3.04;56.40;101577.00;4977449;28;20038;-81
2022/02/23 00:16:05;;;;;;;25.65;2.95;;;;;;;3.11;56.18;101579.63;4975923;28;20364;-80
2022/02/23 00:18:31;;;;;;;19.40;2.55;;;;;;;3.11;56.25;101584.78;4977718;28;20037;-78
2022/02/23 00:20:57;;;;;;;28.33;2.35;;;;;;;2.93;56.95;101590.72;4976831;28;20079;-81
2022/02/23 00:23:23;;;;;;;21.55;1.95;;;;;;;2.94;57.02;101589.03;4991151;28;20562;-80
2022/02/23 00:25:48;;;;;;;17.55;3.10;;;;;;;3.15;56.24;101591.66;4979876;28;20033;-80
2022/02/23 00:28:14;;;;;;;26.40;2.80;;;;;;;2.88;57.48;101592.44;5002022;28;20037;-82
2022/02/23 00:30:41;;;;;;;35.30;3.10;;;;;;;3.12;56.68;101591.66;4991953;28;20037;-78
2022/02/23 00:33:07;;;;;;;25.65;2.03;;;;;;;3.00;56.77;101599.34;4986506;28;20060;-78
2022/02/23 00:35:33;;;;;;;17.92;1.50;;;;;;;2.96;57.41;101602.81;4979505;28;20034;-80
2022/02/23 00:37:58;;;;;;;20.98;2.28;;;;;;;3.06;56.33;101604.53;4962090;28;20117;-81
2022/02/23 00:40:24;;;;;;;25.45;3.28;;;;;;;3.22;55.93;101599.41;4979630;28;20420;-81
2022/02/23 00:42:52;;;;;;;17.80;2.55;;;;;;;3.12;56.00;101596.81;4987722;28;20508;-80
2022/02/23 00:45:19;;;;;;;21.05;2.67;;;;;;;2.82;57.26;101605.31;4981335;28;20037;-79
2022/02/23 00:47:44;;;;;;;15.75;1.15;;;;;;;3.05;56.36;101608.00;4980144;28;20915;-80
2022/02/23 00:50:10;;;;;;;27.38;2.95;;;;;;;2.91;56.82;101612.25;4980931;28;20042;-80
2022/02/23 00:52:35;;;;;;;28.42;2.88;;;;;;;2.89;56.83;101613.94;4978243;28;20046;-79
2022/02/23 00:55:01;;;;;;;21.08;2.05;;;;;;;3.03;56.19;101620.03;4996154;28;20025;-78
2022/02/23 00:57:26;;;;;;;16.83;2.80;;;;;;;3.25;55.62;101620.97;4979492;28;20528;-79
2022/02/23 00:59:52;;;;;;;19.60;1.42;;;;;;;2.68;57.33;101620.75;4979450;28;20098;-81
2022/02/23 01:02:17;;;;;;;19.05;1.55;;;;;;;3.03;55.67;101627.78;4978073;28;20465;-82
2022/02/23 01:04:43;;;;;;;29.13;2.20;;;;;;;3.08;55.88;101628.66;4996522;28;20033;-80
2022/02/23 01:07:10;;;;;;;15.18;1.95;;;;;;;2.94;56.01;101625.19;4976950;28;20042;-79
2022/02/23 01:09:36;;;;;;;16.27;2.97;;;;;;;2.70;56.74;101628.50;4962907;28;20403;-81
2022/02/23 01:12:03;;;;;;;25.02;2.03;;;;;;;2.57;57.18;101643.06;4980739;28;20038;-81
2022/02/23 01:14:28;;;;;;;19.95;2.67;;;;;;;2.75;56.50;101643.16;4979813;28;20419;-79
2022/02/23 01:16:54;;;;;;;21.60;1.85;;;;;;;3.05;55.50;101649.31;4978542;28;20037;-78
2022/02/23 01:19:19;;;;;;;21.02;2.80;;;;;;;3.06;55.48;101638.13;4989758;28;20130;-79
2022/02/23 01:21:45;;;;;;;17.40;1.80;;;;;;;2.89;56.01;101644.94;4990030;28;20080;-81
2022/02/23 01:24:11;;;;;;;16.70;2.83;;;;;;;2.90;55.77;101652.69;4978672;28;20047;-80
2022/02/23 01:26:36;;;;;;;32.95;1.65;;;;;;;3.14;54.87;101651.94;4986874;28;20034;-80
2022/02/23 01:29:02;;;;;;;18.38;2.05;;;;;;;2.86;56.08;101655.25;4976988;28;20045;-78
2022/02/23 01:31:28;;;;;;;16.40;2.42;;;;;;;2.93;55.76;101657.00;4977672;28;20333;-80
2022/02/23 01:33:54;;;;;;;25.52;2.90;;;;;;;2.86;55.66;101666.44;4978665;28;20099;-80
2022/02/23 01:36:20;;;;;;;22.15;2.65;;;;;;;2.43;56.78;101660.19;4978904;28;20041;-79
2022/02/23 01:38:46;;;;;;;16.13;1.27;;;;;;;2.85;55.90;101674.22;4979545;28;20413;-80
2022/02/23 01:41:13;;;;;;;18.15;1.80;;;;;;;2.58;56.32;101686.09;4985428;28;20345;-78
2022/02/23 01:43:39;;;;;;;15.30;1.52;;;;;;;3.01;55.24;101699.22;4978966;28;20042;-79
2022/02/23 01:46:04;;;;;;;16.75;1.85;;;;;;;2.84;55.53;101703.44;4977182;28;20069;-79
2022/02/23 01:48:30;;;;;;;14.88;2.38;;;;;;;3.02;54.68;101703.53;4985254;28;20041;-79
2022/02/23 01:50:56;;;;;;;18.95;1.98;;;;;;;2.63;56.00;101710.22;5001191;28;20038;-79
2022/02/23 01:53:21;;;;;;;12.93;1.90;;;;;;;2.63;55.85;101715.38;4980001;28;20081;-82
2022/02/23 01:55:47;;;;;;;23.63;2.92;;;;;;;2.93;54.82;101713.81;4984240;28;20055;-79
2022/02/23 01:58:13;;;;;;;18.52;1.30;;;;;;;2.59;55.22;101728.25;5000509;28;20038;-77
2022/02/23 02:00:39;;;;;;;18.80;2.63;;;;;;;2.74;54.75;101734.38;4978011;28;20065;-76
2022/02/23 02:03:05;;;;;;;21.95;1.95;;;;;;;2.54;55.31;101730.81;4962539;28;20771;-79
2022/02/23 02:05:31;;;;;;;14.68;1.92;;;;;;;2.76;54.49;101727.50;4979667;28;20371;-79
2022/02/23 02:07:56;;;;;;;23.52;2.13;;;;;;;2.93;53.79;101734.47;4962592;28;20065;-78
2022/02/23 02:10:22;;;;;;;26.27;3.35;;;;;;;2.50;54.82;101729.91;4977342;28;20029;-79
2022/02/23 02:12:47;;;;;;;12.65;2.30;;;;;;;2.96;53.63;101726.78;4983853;28;20038;-81
2022/02/23 02:15:13;;;;;;;16.77;2.70;;;;;;;2.83;53.73;101743.91;4978797;28;20491;-78
2022/02/23 02:17:41;;;;;;;21.98;2.58;;;;;;;2.82;54.08;101742.16;4978442;28;20061;-81
2022/02/23 02:20:09;;;;;;;13.57;2.00;;;;;;;2.72;54.40;101740.38;4976092;28;20026;-79
2022/02/23 02:22:34;;;;;;;16.25;2.95;;;;;;;2.73;54.62;101752.44;4977260;28;20072;-79
2022/02/23 02:25:00;;;;;;;19.33;2.17;;;;;;;3.04;53.61;101761.22;4977519;28;20037;-80
2022/02/23 02:27:26;;;;;;;12.38;2.13;;;;;;;3.28;52.92;101746.72;4978328;28;20048;-78
2022/02/23 02:29:52;;;;;;;24.50;1.92;;;;;;;2.90;54.20;101752.53;4985478;28;20030;-78
2022/02/23 02:32:18;;;;;;;23.27;2.03;;;;;;;2.66;54.92;101759.25;4976122;28;20381;-81
2022/02/23 02:34:46;;;;;;;27.13;3.05;;;;;;;2.84;54.28;101755.09;4980641;28;20033;-75
2022/02/23 02:37:12;;;;;;;20.77;2.63;;;;;;;3.54;52.38;101755.47;4976164;28;20033;-81
2022/02/23 02:39:38;;;;;;;25.85;2.50;;;;;;;2.91;54.35;101756.84;4984230;28;20033;-80
2022/02/23 02:42:04;;;;;;;18.75;2.40;;;;;;;3.29;53.36;101769.13;4982953;28;20040;-80
2022/02/23 02:44:30;;;;;;;23.38;2.58;;;;;;;3.19;53.75;101776.81;4976913;28;20070;-79
2022/02/23 02:46:55;;;;;;;16.23;2.45;;;;;;;3.26;53.73;101777.72;4986185;28;20041;-81
2022/02/23 02:49:21;;;;;;;14.60;2.42;;;;;;;3.36;53.46;101773.50;4975578;28;20036;-79
2022/02/23 02:51:50;;;;;;;25.27;2.80;;;;;;;3.50;52.75;101774.41;4977658;28;20034;-79
2022/02/23 02:54:16;;;;;;;15.70;2.10;;;;;;;3.63;52.54;101782.19;4971087;28;20042;-81
2022/02/23 02:56:41;;;;;;;20.15;3.08;;;;;;;3.28;53.61;101778.59;4983070;28;20045;-79
2022/02/23 02:59:08;;;;;;;31.10;2.65;;;;;;;3.57;53.04;101778.75;4960958;28;20069;-80
2022/02/23 03:01:34;;;;;;;24.92;2.40;;;;;;;2.98;54.21;101787.03;4982132;28;20116;-79
2022/02/23 03:04:00;;;;;;;20.15;2.33;;;;;;;3.06;54.09;101790.50;4975504;28;20033;-79
2022/02/23 03:06:26;;;;;;;14.80;2.17;;;;;;;2.65;55.04;101793.69;5000406;28;20030;-78
2022/02/23 03:08:54;;;;;;;16.63;1.75;;;;;;;3.11;53.86;101796.59;4976742;28;20336;-79
2022/02/23 03:11:21;;;;;;;26.75;3.72;;;;;;;2.59;54.81;101803.97;4976462;28;20034;-79
2022/02/23 03:13:47;;;;;;;24.38;2.05;;;;;;;3.07;53.74;101810.34;4984198;28;20444;-79
2022/02/23 03:16:14;;;;;;;17.42;2.72;;;;;;;3.05;53.58;101812.03;4976605;28;20041;-79
2022/02/23 03:18:40;;;;;;;18.23;2.47;;;;;;;2.93;53.73;101817.97;4979039;28;20069;-80
2022/02/23 03:21:06;;;;;;;14.38;2.65;;;;;;;2.92;54.07;101825.72;4963790;28;20554;-78
2022/02/23 03:23:32;;;;;;;15.77;2.60;;;;;;;2.78;54.49;101828.22;4975768;28;20083;-80
2022/02/23 03:25:58;;;;;;;18.63;1.70;;;;;;;3.04;53.34;101830.09;4977627;28;20046;-80
2022/02/23 03:28:23;;;;;;;14.60;1.40;;;;;;;2.89;54.06;101841.19;4976359;28;20152;-81
2022/02/23 03:30:50;;;;;;;21.25;2.42;;;;;;;3.00;53.71;101839.53;5001171;28;20081;-80
2022/02/23 03:33:16;;;;;;;11.32;1.60;;;;;;;3.07;53.41;101825.84;4986037;28;20041;-78
2022/02/23 03:35:43;;;;;;;24.52;3.05;;;;;;;3.07;53.47;101833.59;4986758;28;20072;-78
2022/02/23 03:38:10;;;;;;;14.80;1.60;;;;;;;3.44;52.46;101835.53;4980387;28;20052;-77
2022/02/23 03:40:36;;;;;;;14.50;1.77;;;;;;;2.81;54.37;101837.69;4994357;28;20037;-82
2022/02/23 03:43:02;;;;;;;15.18;1.55;;;;;;;3.09;53.69;101846.50;4982737;28;20038;-80
2022/02/23 03:45:28;;;;;;;19.20;1.88;;;;;;;3.11;53.59;101848.25;4978443;28;20511;-80
2022/02/23 03:47:54;;;;;;;17.75;1.85;;;;;;;3.07;53.93;101850.78;4974722;28;20037;-79
2022/02/23 03:50:20;;;;;;;16.58;1.65;;;;;;;3.14;53.80;101850.84;4996742;28;20025;-79
2022/02/23 03:52:46;;;;;;;12.93;2.33;;;;;;;3.21;53.21;101858.66;4971800;28;20109;-79
2022/02/23 03:55:12;;;;;;;20.83;1.85;;;;;;;3.29;53.15;101862.16;4982309;28;20368;-80
2022/02/23 03:57:37;;;;;;;35.95;3.42;;;;;;;3.17;53.68;101856.03;4977809;28;20034;-79
2022/02/23 04:00:06;;;;;;;19.27;2.25;;;;;;;3.06;54.06;101870.59;4979401;28;20529;-79
2022/02/23 04:02:32;;;;;;;17.45;2.92;;;;;;;3.08;53.70;101878.34;4974018;28;20294;-78
2022/02/23 04:04:58;;;;;;;14.95;1.80;;;;;;;3.44;52.83;101882.94;4978316;28;20534;-79
2022/02/23 04:07:23;;;;;;;22.80;3.05;;;;;;;3.04;53.87;101892.97;4999178;28;20038;-78
2022/02/23 04:09:49;;;;;;;22.73;2.00;;;;;;;2.78;54.41;101895.34;4975045;28;20042;-80
2022/02/23 04:12:15;;;;;;;26.90;2.35;;;;;;;3.24;53.29;101902.56;4976040;28;20041;-79
2022/02/23 04:14:41;;;;;;;28.27;2.65;;;;;;;3.47;52.79;101907.91;4979600;28;20129;-79
2022/02/23 04:17:07;;;;;;;8.25;1.13;;;;;;;3.46;52.39;101907.06;4975764;28;20679;-80
2022/02/23 04:19:33;;;;;;;18.23;2.35;;;;;;;3.32;53.03;101908.72;5000070;28;20034;-79
2022/02/23 04:21:59;;;;;;;9.90;1.10;;;;;;;3.17;53.12;101914.59;4984294;28;20049;-79
2022/02/23 04:24:24;;;;;;;16.00;2.65;;;;;;;3.21;52.93;101913.75;4977670;28;20112;-79
2022/02/23 04:26:50;;;;;;;21.83;2.53;;;;;;;2.91;53.40;101919.53;4960250;28;20563;-79
2022/02/23 04:29:15;;;;;;;18.27;3.13;;;;;;;3.10;53.00;101918.84;4978907;28;20069;-79
2022/02/23 04:31:43;;;;;;;12.02;1.60;;;;;;;3.13;52.84;101926.59;4980016;28;20041;-79
2022/02/23 04:34:08;;;;;;;24.20;1.77;;;;;;;3.29;52.57;101924.16;4976663;28;20354;-80
2022/02/23 04:36:34;;;;;;;13.48;1.85;;;;;;;3.36;52.19;101929.41;4960726;28;20472;-78
2022/02/23 04:39:00;;;;;;;16.30;1.23;;;;;;;2.99;53.26;101933.38;4975037;28;20047;-79
2022/02/23 04:41:25;;;;;;;16.50;1.15;;;;;;;3.40;52.39;101940.63;4976455;28;20030;-79
2022/02/23 04:43:51;;;;;;;18.92;1.63;;;;;;;3.52;51.82;101935.53;4971956;28;20209;-79
2022/02/23 04:46:16;;;;;;;7.90;1.08;;;;;;;3.26;52.95;101944.81;4983985;28;20057;-81
2022/02/23 04:48:44;;;;;;;20.30;2.17;;;;;;;3.29;52.49;101952.59;4975710;28;20041;-80
2022/02/23 04:51:10;;;;;;;16.65;2.10;;;;;;;3.14;53.00;101941.28;4965303;28;20075;-79
2022/02/23 04:53:36;;;;;;;18.92;2.47;;;;;;;2.94;53.64;101948.00;4981536;28;20718;-80
2022/02/23 04:56:05;;;;;;;14.88;1.88;;;;;;;2.62;54.62;101951.09;4995757;28;20101;-77
2022/02/23 04:58:32;;;;;;;14.18;2.78;;;;;;;3.17;53.07;101964.53;4975627;28;20133;-79
2022/02/23 05:00:58;;;;;;;17.20;1.33;;;;;;;3.09;53.30;101966.22;4982316;28;20084;-81
2022/02/23 05:03:23;;;;;;;23.17;3.92;;;;;;;2.89;53.98;101965.13;4976115;28;20038;-80
2022/02/23 05:05:49;;;;;;;18.38;2.17;;;;;;;2.87;53.76;101969.44;4975700;28;20112;-78
2022/02/23 05:08:17;;;;;;;22.40;2.83;;;;;;;2.60;54.91;101965.72;4986441;28;20067;-79
2022/02/23 05:10:44;;;;;;;18.95;2.70;;;;;;;2.54;54.99;101960.50;4970985;28;20112;-81
2022/02/23 05:13:10;;;;;;;14.30;1.73;;;;;;;2.89;54.06;101959.97;4974414;28;20027;-80
2022/02/23 05:15:36;;;;;;;7.80;1.40;;;;;;;2.53;54.70;101966.50;5002033;28;20369;-79
2022/02/23 05:18:04;;;;;;;16.23;1.20;;;;;;;2.66;54.54;101963.19;4979135;28;20524;-79
2022/02/23 05:20:30;;;;;;;24.83;2.25;;;;;;;2.73;54.47;101972.75;4981479;28;20037;-79
2022/02/23 05:22:55;;;;;;;23.00;1.85;;;;;;;2.68;54.53;101966.66;4967647;28;20086;-81
2022/02/23 05:25:21;;;;;;;22.45;2.00;;;;;;;2.44;55.38;101969.81;4982641;28;20052;-79
2022/02/23 05:27:47;;;;;;;35.92;2.55;;;;;;;2.45;55.32;101978.47;4976019;28;20042;-78
2022/02/23 05:30:12;;;;;;;26.98;3.35;;;;;;;2.45;55.37;101984.47;4978148;28;20033;-79
2022/02/23 05:32:38;;;;;;;20.25;2.63;;;;;;;2.65;54.85;101976.97;4995497;28;20077;-79
2022/02/23 05:35:05;;;;;;;25.58;2.22;;;;;;;2.55;54.74;101986.34;4977364;28;20033;-79
2022/02/23 05:37:31;;;;;;;22.92;2.38;;;;;;;2.50;54.95;101997.44;4977467;28;20042;-76
2022/02/23 05:39:57;;;;;;;18.27;2.15;;;;;;;2.47;54.88;101992.25;5006197;28;20072;-79
2022/02/23 05:42:22;;;;;;;8.65;1.13;;;;;;;2.30;55.21;102002.34;5000157;28;20129;-81
2022/02/23 05:44:48;;;;;;;16.23;2.05;;;;;;;2.58;54.30;102006.16;4981092;28;20030;-79
2022/02/23 05:47:14;;;;;;;21.02;3.22;;;;;;;2.55;54.75;102006.09;4978181;28;20481;-78
2022/02/23 05:49:39;;;;;;;16.92;2.38;;;;;;;2.64;54.66;102010.50;5000650;28;20034;-78
2022/02/23 05:52:05;;;;;;;16.25;2.25;;;;;;;2.33;55.83;102021.34;4974563;28;20081;-80
2022/02/23 05:54:31;;;;;;;21.45;2.33;;;;;;;2.26;55.98;102024.66;4980146;28;20037;-79
2022/02/23 05:57:00;;;;;;;15.70;3.22;;;;;;;2.54;55.24;102022.44;4960755;28;20061;-79
2022/02/23 05:59:25;;;;;;;16.88;1.80;;;;;;;1.77;57.46;102026.53;4982439;28;20367;-80
2022/02/23 06:01:52;;;;;;;22.77;2.10;;;;;;;2.27;56.11;102031.56;5008831;28;20025;-80
2022/02/23 06:04:18;;;;;;;32.67;3.35;;;;;;;2.33;55.85;102035.91;4993483;28;20046;-79
2022/02/23 06:06:44;;;;;;;14.55;2.15;;;;;;;2.20;56.18;102037.50;4978292;28;20445;-80
2022/02/23 06:09:09;;;;;;;21.75;1.67;;;;;;;2.16;56.30;102048.63;4978292;28;20251;-79
2022/02/23 06:11:36;;;;;;;25.30;2.05;;;;;;;1.99;56.78;102050.94;4990152;28;20371;-79
2022/02/23 06:14:05;;;;;;;16.00;2.88;;;;;;;2.21;56.42;102052.13;4976650;28;20421;-78
2022/02/23 06:16:30;;;;;;;12.98;1.20;;;;;;;2.38;55.64;102051.47;4983820;28;20060;-80
2022/02/23 06:18:56;;;;;;;19.88;2.25;;;;;;;1.86;57.45;102057.66;4962504;28;20500;-79
2022/02/23 06:21:23;;;;;;;11.00;1.33;;;;;;;1.96;57.38;102055.19;5000564;28;20031;-79
2022/02/23 06:23:48;;;;;;;24.17;2.17;;;;;;;2.19;56.56;102053.81;5001896;28;20558;-80
2022/02/23 06:26:14;;;;;;;15.32;2.30;;;;;;;2.20;56.34;102062.41;4976036;28;20057;-77
2022/02/23 06:28:40;;;;;;;8.77;0.88;;;;;;;2.09;56.38;102062.28;5000049;28;20129;-82
2022/02/23 06:31:09;;;;;;;16.67;2.03;;;;;;;2.32;56.13;102070.31;4978160;28;20037;-79
2022/02/23 06:33:34;;;;;;;7.43;1.40;;;;;;;2.49;55.34;102074.00;4978360;28;20615;-81
2022/02/23 06:36:00;;;;;;;13.10;1.55;;;;;;;2.54;55.23;102076.63;4980234;28;20048;-79
2022/02/23 06:38:26;;;;;;;24.90;2.20;;;;;;;2.13;57.10;102074.34;4977735;28;20069;-77
2022/02/23 06:40:52;;;;;;;18.02;2.03;;;;;;;2.12;56.71;102078.66;4989646;28;20030;-77
2022/02/23 06:43:18;;;;;;;14.57;1.42;;;;;;;2.35;55.79;102091.88;4984700;28;20046;-79
2022/02/23 06:45:49;;;;;;;21.88;1.88;;;;;;;2.59;54.73;102085.28;4995234;28;20034;-78
2022/02/23 06:48:17;;;;;;;16.85;2.10;;;;;;;2.74;54.27;102090.66;4978221;28;20060;-78
2022/02/23 06:50:42;;;;;;;13.85;2.88;;;;;;;2.13;56.61;102092.41;4976985;28;20092;-80
2022/02/23 06:53:09;;;;;;;21.45;2.05;;;;;;;1.84;57.37;102097.09;4994224;28;20041;-79
2022/02/23 06:55:34;;;;;;;17.10;1.48;;;;;;;2.02;56.50;102091.38;4968154;28;20271;-79
2022/02/23 06:58:00;;;;;;;21.45;1.88;;;;;;;2.13;56.25;102092.41;4990224;28;20041;-81
2022/02/23 07:00:27;;;;;;;27.95;2.75;;;;;;;2.15;56.44;102095.88;4981539;28;20268;-80
2022/02/23 07:02:54;;;;;;;16.77;1.70;;;;;;;2.43;55.46;102096.28;4972426;28;20092;-80
2022/02/23 07:05:20;;;;;;;22.83;2.80;;;;;;;2.10;56.65;102095.81;4991737;28;20119;-79
2022/02/23 07:07:47;;;;;;;16.05;1.30;;;;;;;2.42;55.64;102090.25;4995637;28;20371;-79
2022/02/23 07:10:20;;;;;;;21.13;2.20;;;;;;;1.93;57.29;102090.41;4978624;28;20556;-79
2022/02/23 07:12:45;;;;;;;24.90;2.65;;;;;;;2.07;56.96;102092.31;4977336;28;20077;-79
2022/02/23 07:15:11;;;;;;;14.43;2.22;;;;;;;2.26;55.83;102096.88;4984105;28;20066;-79
2022/02/23 07:17:37;;;;;;;20.25;2.03;;;;;;;2.28;56.48;102102.09;4981784;28;20034;-79
2022/02/23 07:20:02;;;;;;;22.02;2.67;;;;;;;2.48;56.15;102105.81;4980181;28;20077;-78
2022/02/23 07:22:28;;;;;;;14.30;1.52;;;;;;;2.88;55.02;102098.56;4974317;28;20048;-78
2022/02/23 07:24:53;;;;;;;13.57;1.70;;;;;;;2.27;56.36;102108.97;4977783;28;20096;-81
2022/02/23 07:27:19;;;;;;;9.95;1.08;;;;;;;2.73;55.51;102117.34;4995314;28;20362;-79
2022/02/23 07:29:46;;;;;;;15.60;2.15;;;;;;;2.88;54.62;102116.63;5004192;28;20038;-80
2022/02/23 07:32:12;;;;;;;13.35;1.83;;;;;;;2.81;55.00;102121.72;4983250;28;20037;-79
2022/02/23 07:34:54;;;;;;;24.15;2.42;;;;;;;2.39;56.11;102120.31;5010036;28;20153;-85
2022/02/23 07:37:43;;;;;;;20.63;1.38;;;;;;;2.85;55.59;102118.34;5014303;28;20040;-82
2022/02/23 07:40:14;;;;;;;14.43;2.25;;;;;;;3.16;55.11;102117.81;4983933;28;20618;-81
2022/02/23 07:42:41;;;;;;;11.65;2.25;;;;;;;3.31;54.72;102109.38;4981452;28;20057;-81
2022/02/23 07:45:09;;;;;;;26.35;2.70;;;;;;;5.25;50.28;102116.63;4986471;28;20027;-81
2022/02/23 07:47:35;;;;;;;19.92;1.60;;;;;;;6.47;46.89;102112.31;5013460;28;20056;-80
2022/02/23 07:50:01;;;;;;;14.02;2.25;;;;;;;7.23;44.71;102119.78;5000753;28;20045;-83
2022/02/23 07:52:29;;;;;;;8.52;2.00;;;;;;;8.66;40.36;102115.91;5001270;28;20033;-79
2022/02/23 07:54:55;;;;;;;13.57;2.67;;;;;;;8.24;40.33;102111.16;5008396;28;20109;-81
2022/02/23 07:57:21;;;;;;;11.18;1.27;;;;;;;7.58;42.73;102114.38;5017701;28;20061;-79
2022/02/23 07:59:46;;;;;;;10.25;1.40;;;;;;;8.32;41.75;102113.69;5011064;28;20942;-81
2022/02/23 08:02:14;;;;;;;14.40;1.95;;;;;;;8.27;40.18;102118.94;4990702;28;20038;-80
2022/02/23 08:04:40;;;;;;;19.67;2.28;;;;;;;8.90;38.55;102113.03;4998819;28;20041;-81
2022/02/23 08:07:06;;;;;;;11.48;1.30;;;;;;;7.77;43.65;102115.06;4995071;28;20048;-83
2022/02/23 08:09:32;;;;;;;10.50;1.58;;;;;;;9.42;37.90;102115.78;4984673;28;20586;-78
2022/02/23 08:12:00;;;;;;;12.13;1.55;;;;;;;9.35;40.01;102120.22;4989619;28;20059;-80
2022/02/23 08:14:25;;;;;;;5.13;1.00;;;;;;;9.82;37.80;102125.59;4986170;28;20401;-78
2022/02/23 08:19:36;;;;;;;18.83;3.10;;;;;;;10.15;37.51;102117.16;4979179;28;20041;-79
2022/02/23 08:22:05;;;;;;;16.17;2.58;;;;;;;9.79;38.91;102118.66;5002863;28;20327;-79
2022/02/23 08:24:33;;;;;;;13.60;2.13;;;;;;;9.96;37.52;102123.59;4979270;28;20033;-78
2022/02/23 08:27:01;;;;;;;10.93;2.08;;;;;;;11.16;36.67;102121.25;4979639;28;20659;-83
2022/02/23 08:29:27;;;;;;;8.90;1.77;;;;;;;11.03;36.81;102129.34;5010260;28;20129;-79
2022/02/23 08:31:53;;;;;;;11.38;1.88;;;;;;;11.23;35.22;102128.91;4975733;28;20381;-79
2022/02/23 08:34:18;;;;;;;13.10;0.90;;;;;;;10.70;35.40;102130.03;4978386;28;20050;-82
2022/02/23 08:36:45;;;;;;;15.73;1.17;;;;;;;10.48;35.45;102133.13;4979491;28;20087;-77
2022/02/23 08:39:11;;;;;;;7.97;1.20;;;;;;;10.88;35.27;102134.06;4969715;28;20054;-78
2022/02/23 08:41:36;;;;;;;15.77;2.75;;;;;;;11.98;33.92;102133.28;4977720;28;20037;-78
2022/02/23 08:44:06;;;;;;;13.90;2.28;;;;;;;10.39;35.49;102141.09;4972601;28;20900;-77
2022/02/23 08:46:35;;;;;;;14.20;2.65;;;;;;;10.00;36.06;102136.59;4978580;28;20033;-78
2022/02/23 08:49:02;;;;;;;11.18;1.85;;;;;;;10.15;36.89;102135.47;4976058;28;20124;-79
2022/02/23 08:51:28;;;;;;;11.45;1.63;;;;;;;10.23;36.05;102132.69;4979658;28;20030;-80
2022/02/23 08:53:54;;;;;;;8.15;1.15;;;;;;;9.29;39.33;102144.63;4983903;28;20584;-78
2022/02/23 08:56:19;;;;;;;15.65;1.80;;;;;;;9.00;39.09;102136.38;4995554;28;20033;-78
2022/02/23 08:58:45;;;;;;;12.15;0.90;;;;;;;10.07;36.95;102129.50;5007583;28;20056;-79
2022/02/23 09:01:10;;;;;;;13.10;2.40;;;;;;;10.10;37.11;102139.03;4964715;28;20752;-77
2022/02/23 09:03:36;;;;;;;10.57;1.27;;;;;;;11.24;36.05;102129.75;4966254;28;20092;-78
2022/02/23 09:06:01;;;;;;;9.75;1.33;;;;;;;10.14;35.23;102131.09;4981100;28;20503;-80
2022/02/23 09:08:27;;;;;;;6.72;1.20;;;;;;;10.98;36.46;102139.06;4984934;28;20052;-77
2022/02/23 09:10:52;;;;;;;8.27;1.15;;;;;;;10.30;37.48;102141.28;4987797;28;20041;-77
2022/02/23 09:13:18;;;;;;;7.20;1.15;;;;;;;9.44;38.00;102151.38;5000277;28;20045;-81
2022/02/23 09:15:44;;;;;;;13.82;0.73;;;;;;;8.11;39.31;102152.09;4978400;28;20026;-78
2022/02/23 09:18:09;;;;;;;7.05;1.35;;;;;;;8.21;39.29;102142.44;4993741;28;20120;-77
2022/02/23 09:20:35;;;;;;;8.05;1.35;;;;;;;8.48;38.19;102156.91;4985999;28;20029;-82
2022/02/23 09:23:01;;;;;;;12.80;1.63;;;;;;;8.26;40.28;102151.06;4968184;28;20061;-80
2022/02/23 09:25:28;;;;;;;11.80;1.60;;;;;;;8.72;38.89;102170.59;4983459;28;20556;-79
2022/02/23 09:27:53;;;;;;;9.18;0.93;;;;;;;7.92;40.57;102161.78;5000415;28;20049;-81
2022/02/23 09:30:19;;;;;;;10.10;0.85;;;;;;;7.85;40.86;102161.88;4973720;28;20034;-80
2022/02/23 09:32:49;;;;;;;12.48;1.88;;;;;;;8.21;39.54;102146.81;4994912;28;20042;-79
2022/02/23 09:35:15;;;;;;;6.32;1.33;;;;;;;7.98;40.66;102158.28;4982873;28;20030;-77
2022/02/23 09:37:41;;;;;;;10.57;1.05;;;;;;;8.73;39.50;102156.69;4984982;28;20042;-77
2022/02/23 09:40:07;;;;;;;9.05;0.63;;;;;;;8.96;37.76;102159.88;4979296;28;20377;-78
2022/02/23 09:42:32;;;;;;;9.55;0.70;;;;;;;8.38;39.59;102157.88;4979794;28;20041;-79
2022/02/23 09:44:59;;;;;;;11.02;0.85;;;;;;;7.47;40.58;102157.78;4989506;28;20563;-77
2022/02/23 09:47:27;;;;;;;8.73;1.02;;;;;;;8.26;38.64;102161.47;4986010;28;20127;-77
2022/02/23 09:49:53;;;;;;;6.20;0.52;;;;;;;7.79;39.83;102154.97;5005438;28;20037;-78
2022/02/23 09:52:23;;;;;;;12.75;1.05;;;;;;;8.17;39.45;102158.97;4982038;28;20038;-81
2022/02/23 09:54:49;;;;;;;9.75;1.17;;;;;;;7.47;41.39;102152.56;4983591;28;20166;-79
2022/02/23 09:57:15;;;;;;;13.50;1.00;;;;;;;8.64;39.95;102154.16;4969298;28;20057;-79
2022/02/23 09:59:40;;;;;;;14.25;1.67;;;;;;;9.62;37.15;102155.47;4993753;28;20120;-79
2022/02/23 10:02:05;;;;;;;5.43;0.95;;;;;;;9.06;38.68;102159.75;4993199;28;20041;-81
2022/02/23 10:04:31;;;;;;;9.75;1.05;;;;;;;9.78;37.07;102150.84;4993657;28;20580;-80
2022/02/23 10:07:02;;;;;;;8.05;0.80;;;;;;;9.67;36.02;102158.84;4964110;28;20042;-79
2022/02/23 10:09:27;;;;;;;9.93;0.45;;;;;;;9.94;35.90;102154.97;4988328;28;20089;-78
2022/02/23 10:11:54;;;;;;;12.13;0.85;;;;;;;9.43;36.69;102159.22;4984018;28;20269;-80
2022/02/23 10:14:19;;;;;;;16.75;1.80;;;;;;;8.97;37.88;102169.41;4983504;28;20066;-77
2022/02/23 10:16:49;;;;;;;8.52;0.68;;;;;;;9.77;36.37;102155.22;4983280;28;20490;-78
2022/02/23 10:19:18;;;;;;;8.45;1.20;;;;;;;8.89;38.10;102173.00;4980681;28;20039;-78
2022/02/23 10:21:57;;;;;;;4.97;1.10;;;;;;;9.85;36.92;102157.72;4977990;28;20513;-79
2022/02/23 10:24:34;;;;;;;3.55;1.05;;;;;;;10.11;35.45;102148.59;4985261;28;20065;-80
2022/02/23 10:27:13;;;;;;;7.78;0.65;;;;;;;9.53;35.93;102156.47;4988743;28;20056;-78
2022/02/23 10:29:46;;;;;;;2.03;0.40;;;;;;;8.84;37.08;102154.81;4979846;28;20038;-79
2022/02/23 10:32:14;;;;;;;4.47;0.57;;;;;;;9.31;36.73;102157.66;4966010;28;20496;-78
2022/02/23 10:34:43;;;;;;;4.18;0.43;;;;;;;9.82;35.26;102156.94;4980120;28;20042;-79
2022/02/23 10:37:11;;;;;;;6.32;0.22;;;;;;;10.08;34.61;102154.75;4985132;28;20033;-79
2022/02/23 10:39:42;;;;;;;5.25;0.60;;;;;;;10.12;34.83;102159.00;4981661;28;20045;-78
2022/02/23 10:42:24;;;;;;;3.08;0.50;;;;;;;9.93;34.51;102157.63;4983156;28;20041;-80
2022/02/23 10:44:51;;;;;;;4.82;0.45;;;;;;;8.74;37.05;102153.22;4985797;28;20033;-80
2022/02/23 10:47:24;;;;;;;5.60;0.38;;;;;;;9.63;35.72;102157.19;4981067;28;20042;-81
2022/02/23 10:50:09;;;;;;;3.53;0.68;;;;;;;8.85;37.42;102156.53;4988897;28;20037;-81
2022/02/23 10:52:40;;;;;;;6.80;0.73;;;;;;;9.95;36.03;102159.31;4965803;28;20084;-79
2022/02/23 10:55:25;;;;;;;6.72;0.55;;;;;;;8.73;37.31;102157.53;4991340;28;20065;-78
2022/02/23 10:57:54;;;;;;;8.57;0.40;;;;;;;8.94;38.12;102172.06;4977629;28;21374;-78
2022/02/23 11:00:44;;;;;;;5.00;0.50;;;;;;;9.18;37.79;102159.56;4995483;28;20037;-78
2022/02/23 11:03:11;;;;;;;5.22;0.68;;;;;;;8.41;38.69;102154.41;4978954;28;20095;-78
2022/02/23 11:05:36;;;;;;;5.72;0.50;;;;;;;9.08;37.41;102169.28;4978898;28;20041;-78
2022/02/23 11:08:04;;;;;;;4.70;0.38;;;;;;;8.25;37.85;102161.50;5003787;28;20041;-78
2022/02/23 11:10:30;;;;;;;2.25;0.55;;;;;;;8.00;39.19;102153.91;4978814;28;20399;-79
2022/02/23 11:12:58;;;;;;;9.02;0.32;;;;;;;9.26;36.62;102157.75;4965982;28;20640;-77
2022/02/23 11:15:25;;;;;;;4.22;0.38;;;;;;;9.08;36.45;102153.63;5000833;28;20162;-76
2022/02/23 11:17:53;;;;;;;3.40;0.65;;;;;;;8.16;38.05;102159.88;5003994;28;20092;-77
2022/02/23 11:20:28;;;;;;;6.35;0.63;;;;;;;9.23;37.26;102149.97;4977526;28;20027;-79
2022/02/23 11:22:58;;;;;;;8.52;1.05;;;;;;;9.05;37.46;102161.47;4980834;28;20417;-83
2022/02/23 11:25:30;;;;;;;2.40;0.40;;;;;;;8.56;37.18;102152.50;4979023;28;20405;-81
2022/02/23 11:28:02;;;;;;;7.18;0.88;;;;;;;8.10;38.99;102150.34;4979279;28;20473;-80